createdAt,value
2022-08-03T00:02:20.655Z,19.30
2022-08-03T00:04:48.512Z,19.29
2022-08-03T00:07:17.025Z,19.27
2022-08-03T00:09:45.034Z,19.26
2022-08-03T00:12:13.136Z,19.27
2022-08-03T00:14:41.401Z,19.27
2022-08-03T00:17:09.901Z,19.28
2022-08-03T00:19:37.877Z,19.26
2022-08-03T00:22:05.852Z,19.24
2022-08-03T00:24:36.302Z,19.23
2022-08-03T00:27:04.395Z,19.20
2022-08-03T00:29:32.354Z,19.17
2022-08-03T00:32:00.728Z,19.15
2022-08-03T00:34:35.227Z,19.12
2022-08-03T00:37:16.726Z,19.08
2022-08-03T00:39:47.395Z,19.04
2022-08-03T00:42:15.672Z,19.02
2022-08-03T00:44:44.768Z,18.99
2022-08-03T00:47:12.701Z,18.97
2022-08-03T00:49:41.540Z,18.96
2022-08-03T00:52:10.202Z,18.93
2022-08-03T00:54:39.132Z,18.90
2022-08-03T00:57:07.840Z,18.87
2022-08-03T00:59:37.232Z,18.83
2022-08-03T01:02:05.255Z,18.79
2022-08-03T01:04:33.108Z,18.75
2022-08-03T01:07:03.978Z,18.68
2022-08-03T01:09:50.727Z,18.63
2022-08-03T01:12:25.318Z,18.59
2022-08-03T01:15:00.663Z,18.58
2022-08-03T01:17:38.715Z,18.56
2022-08-03T01:20:10.847Z,18.54
2022-08-03T01:22:45.016Z,18.52
2022-08-03T01:25:12.965Z,18.49
2022-08-03T01:27:52.212Z,18.44
2022-08-03T01:30:20.305Z,18.40
2022-08-03T01:33:00.940Z,18.37
2022-08-03T01:35:38.550Z,18.33
2022-08-03T01:38:12.519Z,18.30
2022-08-03T01:40:41.837Z,18.29
2022-08-03T01:43:11.791Z,18.27
2022-08-03T01:45:40.377Z,18.24
2022-08-03T01:48:08.706Z,18.23
2022-08-03T01:50:37.271Z,18.19
2022-08-03T01:53:07.981Z,18.15
2022-08-03T01:55:37.541Z,18.11
2022-08-03T01:58:07.996Z,18.08
2022-08-03T02:00:37.610Z,18.05
2022-08-03T02:03:06.403Z,18.03
2022-08-03T02:05:34.740Z,18.02
2022-08-03T02:08:03.955Z,18.01
2022-08-03T02:10:35.599Z,18.01
2022-08-03T02:13:05.354Z,18.01
2022-08-03T02:15:34.127Z,17.99
2022-08-03T02:18:03.444Z,17.99
2022-08-03T02:20:33.352Z,17.97
2022-08-03T02:23:01.347Z,17.98
2022-08-03T02:25:30.509Z,17.98
2022-08-03T02:28:01.228Z,17.98
2022-08-03T02:30:38.790Z,17.98
2022-08-03T02:33:17.514Z,17.98
2022-08-03T02:35:47.020Z,17.97
2022-08-03T02:38:17.013Z,17.96
2022-08-03T02:40:45.257Z,17.93
2022-08-03T02:43:18.337Z,17.90
2022-08-03T02:45:48.341Z,17.88
2022-08-03T02:48:17.834Z,17.85
2022-08-03T02:50:46.522Z,17.83
2022-08-03T02:53:16.842Z,17.80
2022-08-03T02:55:46.649Z,17.77
2022-08-03T02:58:14.917Z,17.74
2022-08-03T03:00:44.244Z,17.71
2022-08-03T03:03:12.993Z,17.68
2022-08-03T03:05:52.241Z,17.67
2022-08-03T03:08:26.157Z,17.67
2022-08-03T03:10:58.927Z,17.69
2022-08-03T03:13:28.488Z,17.68
2022-08-03T03:15:57.848Z,17.68
2022-08-03T03:18:27.910Z,17.67
2022-08-03T03:20:56.574Z,17.66
2022-08-03T03:23:25.302Z,17.65
2022-08-03T03:25:53.840Z,17.67
2022-08-03T03:28:22.591Z,17.69
2022-08-03T03:30:53.407Z,17.71
2022-08-03T03:33:22.381Z,17.72
2022-08-03T03:35:51.909Z,17.73
2022-08-03T03:38:20.271Z,17.74
2022-08-03T03:40:48.377Z,17.72
2022-08-03T03:43:18.870Z,17.71
2022-08-03T03:45:47.756Z,17.70
2022-08-03T03:48:15.989Z,17.70
2022-08-03T03:50:43.984Z,17.72
2022-08-03T03:53:12.543Z,17.73
2022-08-03T03:55:59.019Z,17.74
2022-08-03T03:58:29.219Z,17.76
2022-08-03T04:00:57.301Z,17.77
2022-08-03T04:03:25.266Z,17.78
2022-08-03T04:06:11.508Z,17.78
2022-08-03T04:08:59.225Z,17.76
2022-08-03T04:11:40.935Z,17.75
2022-08-03T04:14:15.054Z,17.76
2022-08-03T04:16:45.827Z,17.77
2022-08-03T04:19:33.935Z,17.78
2022-08-03T04:22:04.404Z,17.81
2022-08-03T04:24:38.934Z,17.82
2022-08-03T04:27:09.408Z,17.85
2022-08-03T04:29:48.087Z,17.86
2022-08-03T04:32:20.538Z,17.87
2022-08-03T04:34:48.471Z,17.87
2022-08-03T04:37:23.292Z,17.91
2022-08-03T04:39:52.466Z,17.94
2022-08-03T04:42:25.988Z,17.97
2022-08-03T04:45:00.444Z,17.99
2022-08-03T04:47:31.222Z,18.02
2022-08-03T04:50:00.567Z,18.06
2022-08-03T04:52:28.709Z,18.12
2022-08-03T04:54:57.046Z,18.15
2022-08-03T04:57:24.962Z,18.18
2022-08-03T05:00:01.401Z,18.20
2022-08-03T05:02:31.357Z,18.22
2022-08-03T05:04:59.635Z,18.25
2022-08-03T05:07:36.248Z,18.28
2022-08-03T05:10:05.730Z,18.29
2022-08-03T05:12:43.684Z,18.30
2022-08-03T05:15:12.099Z,18.32
2022-08-03T05:17:40.356Z,18.36
2022-08-03T05:20:08.828Z,18.38
2022-08-03T05:22:36.709Z,18.41
2022-08-03T05:25:04.904Z,18.45
2022-08-03T05:27:32.789Z,18.49
2022-08-03T05:30:31.253Z,18.54
2022-08-03T05:32:48.806Z,18.60
2022-08-03T05:35:55.843Z,18.65
2022-08-03T05:38:05.092Z,18.70
2022-08-03T05:40:33.868Z,18.74
2022-08-03T05:43:02.201Z,18.77
2022-08-03T05:45:30.097Z,18.81
2022-08-03T05:47:57.959Z,18.86
2022-08-03T05:50:25.980Z,18.92
2022-08-03T05:52:56.032Z,18.98
2022-08-03T05:55:24.206Z,19.05
2022-08-03T05:57:52.070Z,19.12
2022-08-03T06:00:23.308Z,19.19
2022-08-03T06:02:53.632Z,19.28
2022-08-03T06:05:21.614Z,19.37
2022-08-03T06:07:49.616Z,19.44
2022-08-03T06:10:36.725Z,19.52
2022-08-03T06:13:05.386Z,19.62
2022-08-03T06:15:35.585Z,19.72
2022-08-03T06:18:03.479Z,19.83
2022-08-03T06:20:31.429Z,19.93
2022-08-03T06:23:00.990Z,20.03
2022-08-03T06:25:29.447Z,20.14
2022-08-03T06:27:57.376Z,20.22
2022-08-03T06:30:25.723Z,20.33
2022-08-03T06:32:53.721Z,20.45
2022-08-03T06:35:21.669Z,20.57
2022-08-03T06:37:50.700Z,20.68
2022-08-03T06:40:24.341Z,20.80
2022-08-03T06:42:53.020Z,20.91
2022-08-03T06:45:22.148Z,21.02
2022-08-03T06:48:00.260Z,21.12
2022-08-03T06:50:28.413Z,21.24
2022-08-03T06:52:56.367Z,21.36
2022-08-03T06:55:24.716Z,21.47
2022-08-03T06:57:52.652Z,21.57
2022-08-03T07:00:20.897Z,21.69
2022-08-03T07:02:49.347Z,21.79
2022-08-03T07:05:20.729Z,21.87
2022-08-03T07:07:49.430Z,21.95
2022-08-03T07:10:17.384Z,22.04
2022-08-03T07:12:55.786Z,22.14
2022-08-03T07:15:53.921Z,22.24
2022-08-03T07:18:12.952Z,22.36
2022-08-03T07:20:41.136Z,22.47
2022-08-03T07:23:10.074Z,22.57
2022-08-03T07:25:43.985Z,22.70
2022-08-03T07:28:12.013Z,22.80
2022-08-03T07:30:39.910Z,22.91
2022-08-03T07:33:07.923Z,23.02
2022-08-03T07:35:35.838Z,23.13
2022-08-03T07:38:03.699Z,23.25
2022-08-03T07:40:32.143Z,23.38
2022-08-03T07:43:00.573Z,23.51
2022-08-03T07:45:29.378Z,23.63
2022-08-03T07:47:57.461Z,23.75
2022-08-03T07:50:25.508Z,23.87
2022-08-03T07:52:54.266Z,24.01
2022-08-03T07:55:23.235Z,24.16
2022-08-03T07:58:12.516Z,24.29
2022-08-03T08:00:40.591Z,24.45
2022-08-03T08:03:08.959Z,24.59
2022-08-03T08:05:37.153Z,24.73
2022-08-03T08:08:05.315Z,24.89
2022-08-03T08:10:33.252Z,25.04
2022-08-03T08:13:02.151Z,25.18
2022-08-03T08:15:30.212Z,25.28
2022-08-03T08:17:59.542Z,25.41
2022-08-03T08:20:31.317Z,25.51
2022-08-03T08:23:01.532Z,25.61
2022-08-03T08:25:31.034Z,25.70
2022-08-03T08:28:29.876Z,25.81
2022-08-03T08:30:51.147Z,25.94
2022-08-03T08:33:22.536Z,26.07
2022-08-03T08:35:53.619Z,26.19
2022-08-03T08:38:22.018Z,26.30
2022-08-03T08:40:50.763Z,26.32
2022-08-03T08:43:18.683Z,26.36
2022-08-03T08:45:47.912Z,26.41
2022-08-03T08:48:17.920Z,26.44
2022-08-03T08:50:45.987Z,26.49
2022-08-03T08:53:17.350Z,26.59
2022-08-03T08:55:57.904Z,26.71
2022-08-03T08:58:34.748Z,26.84
2022-08-03T09:01:03.087Z,26.98
2022-08-03T09:03:34.519Z,27.16
2022-08-03T09:06:02.886Z,27.32
2022-08-03T09:08:31.949Z,27.43
2022-08-03T09:10:59.989Z,27.53
2022-08-03T09:13:29.308Z,27.61
2022-08-03T09:16:09.623Z,27.69
2022-08-03T09:18:37.868Z,27.78
2022-08-03T09:21:34.449Z,27.85
2022-08-03T09:24:06.199Z,28.01
2022-08-03T09:26:35.917Z,28.13
2022-08-03T09:29:13.792Z,28.19
2022-08-03T09:31:47.058Z,28.16
2022-08-03T09:34:16.563Z,28.18
2022-08-03T09:36:49.466Z,28.27
2022-08-03T09:39:18.677Z,28.36
2022-08-03T09:41:48.576Z,28.44
2022-08-03T09:44:25.119Z,28.53
2022-08-03T09:46:56.447Z,28.64
2022-08-03T09:49:25.287Z,28.75
2022-08-03T09:52:37.637Z,28.86
2022-08-03T09:54:42.511Z,28.89
2022-08-03T09:57:26.254Z,28.87
2022-08-03T10:00:04.654Z,28.88
2022-08-03T10:02:40.898Z,28.88
2022-08-03T10:05:09.924Z,28.95
2022-08-03T10:07:47.257Z,29.07
2022-08-03T10:10:30.938Z,29.16
2022-08-03T10:13:00.369Z,29.27
2022-08-03T10:16:23.069Z,29.26
2022-08-03T10:18:16.593Z,29.19
2022-08-03T10:20:46.898Z,29.20
2022-08-03T10:23:17.380Z,29.29
2022-08-03T10:25:49.766Z,29.37
2022-08-03T10:28:19.468Z,29.45
2022-08-03T10:30:53.037Z,29.55
2022-08-03T10:33:50.869Z,29.62
2022-08-03T10:36:16.804Z,29.77
2022-08-03T10:38:47.514Z,29.89
2022-08-03T10:41:18.744Z,29.99
2022-08-03T10:44:06.953Z,30.15
2022-08-03T10:46:36.208Z,30.34
2022-08-03T10:49:05.664Z,30.47
2022-08-03T10:51:34.216Z,30.61
2022-08-03T10:54:02.321Z,30.63
2022-08-03T10:56:51.819Z,30.67
2022-08-03T10:59:38.549Z,30.76
2022-08-03T11:02:10.134Z,30.83
2022-08-03T11:04:38.301Z,30.89
2022-08-03T11:07:22.816Z,31.01
2022-08-03T11:09:55.377Z,31.15
2022-08-03T11:12:30.768Z,31.22
2022-08-03T11:15:02.241Z,31.37
2022-08-03T11:17:30.239Z,31.50
2022-08-03T11:19:58.573Z,31.56
2022-08-03T11:22:46.767Z,31.64
2022-08-03T11:25:54.952Z,31.72
2022-08-03T11:28:23.393Z,31.76
2022-08-03T11:30:54.424Z,31.87
2022-08-03T11:33:31.790Z,31.94
2022-08-03T11:36:01.389Z,31.99
2022-08-03T11:38:29.364Z,32.07
2022-08-03T11:40:57.317Z,32.10
2022-08-03T11:43:31.886Z,32.11
2022-08-03T11:46:29.589Z,32.13
2022-08-03T11:49:07.818Z,32.09
2022-08-03T11:51:40.083Z,32.17
2022-08-03T11:54:08.117Z,32.18
2022-08-03T11:56:48.170Z,32.19
2022-08-03T11:59:21.751Z,32.34
2022-08-03T12:01:51.368Z,32.44
2022-08-03T12:04:19.240Z,32.56
2022-08-03T12:07:00.491Z,32.69
2022-08-03T12:09:28.487Z,32.64
2022-08-03T12:12:00.452Z,32.50
2022-08-03T12:14:49.816Z,32.30
2022-08-03T12:17:19.114Z,32.11
2022-08-03T12:19:47.461Z,31.87
2022-08-03T12:22:16.967Z,31.60
2022-08-03T12:24:46.915Z,31.32
2022-08-03T12:27:29.987Z,31.15
2022-08-03T12:30:01.912Z,31.02
2022-08-03T12:32:30.540Z,30.94
2022-08-03T12:35:01.866Z,30.87
2022-08-03T12:37:30.695Z,30.82
2022-08-03T12:40:07.944Z,30.75
2022-08-03T12:42:39.388Z,30.67
2022-08-03T12:45:24.421Z,30.66
2022-08-03T12:47:52.251Z,30.70
2022-08-03T12:50:33.795Z,30.71
2022-08-03T12:53:03.278Z,30.74
2022-08-03T12:55:57.285Z,30.82
2022-08-03T12:58:29.791Z,30.82
2022-08-03T13:00:57.713Z,30.69
2022-08-03T13:03:39.220Z,30.46
2022-08-03T13:06:14.213Z,30.20
2022-08-03T13:08:42.901Z,30.11
2022-08-03T13:11:52.596Z,30.06
2022-08-03T13:14:13.516Z,29.94
2022-08-03T13:16:44.898Z,29.83
2022-08-03T13:19:15.411Z,29.66
2022-08-03T13:21:53.595Z,29.53
2022-08-03T13:24:33.466Z,29.43
2022-08-03T13:27:21.942Z,29.41
2022-08-03T13:29:51.121Z,29.42
2022-08-03T13:32:19.015Z,29.39
2022-08-03T13:34:46.961Z,29.38
2022-08-03T13:37:15.202Z,29.36
2022-08-03T13:39:57.545Z,29.36
2022-08-03T13:42:29.280Z,29.39
2022-08-03T13:45:02.308Z,29.43
2022-08-03T13:47:30.387Z,29.48
2022-08-03T13:50:02.771Z,29.55
2022-08-03T13:52:32.500Z,29.62
2022-08-03T13:55:01.059Z,29.73
2022-08-03T13:58:05.171Z,29.83
2022-08-03T14:00:27.513Z,29.90
2022-08-03T14:03:03.784Z,30.00
2022-08-03T14:05:33.904Z,30.07
2022-08-03T14:08:04.090Z,30.10
2022-08-03T14:10:34.268Z,30.17
2022-08-03T14:13:02.271Z,30.27
2022-08-03T14:15:30.274Z,30.25
2022-08-03T14:17:58.921Z,30.13
2022-08-03T14:20:38.798Z,29.99
2022-08-03T14:23:15.461Z,29.82
2022-08-03T14:25:50.142Z,29.72
2022-08-03T14:28:19.188Z,29.60
2022-08-03T14:30:48.085Z,29.49
2022-08-03T14:33:16.032Z,29.44
2022-08-03T14:35:44.235Z,29.42
2022-08-03T14:38:12.029Z,29.44
2022-08-03T14:40:39.931Z,29.47
2022-08-03T14:43:07.958Z,29.43
2022-08-03T14:45:36.142Z,29.43
2022-08-03T14:50:32.766Z,29.44
2022-08-03T14:50:55.335Z,29.44
2022-08-03T14:53:23.498Z,29.45
2022-08-03T14:55:53.053Z,29.44
2022-08-03T14:58:22.016Z,29.40
2022-08-03T15:00:51.297Z,29.39
2022-08-03T15:03:25.000Z,29.38
2022-08-03T15:05:54.478Z,29.39
2022-08-03T15:08:23.276Z,29.40
2022-08-03T15:10:51.668Z,29.43
2022-08-03T15:13:19.907Z,29.44
2022-08-03T15:15:48.519Z,29.42
2022-08-03T15:18:16.476Z,29.42
2022-08-03T15:20:46.381Z,29.46
2022-08-03T15:23:15.885Z,29.55
2022-08-03T15:26:32.120Z,29.63
2022-08-03T15:28:32.738Z,29.75
2022-08-03T15:31:01.285Z,29.90
2022-08-03T15:33:29.319Z,30.08
2022-08-03T15:35:57.401Z,30.21
2022-08-03T15:38:26.181Z,30.33
2022-08-03T15:40:55.161Z,30.48
2022-08-03T15:43:23.964Z,30.59
2022-08-03T15:46:12.792Z,30.61
2022-08-03T15:48:40.548Z,30.54
2022-08-03T15:51:08.733Z,30.41
2022-08-03T15:53:37.237Z,30.29
2022-08-03T15:56:12.147Z,30.28
2022-08-03T15:59:11.352Z,30.22
2022-08-03T16:01:30.771Z,30.10
2022-08-03T16:03:58.882Z,29.98
2022-08-03T16:06:34.934Z,29.82
2022-08-03T16:09:23.494Z,29.64
2022-08-03T16:11:58.261Z,29.48
2022-08-03T16:14:34.381Z,29.32
2022-08-03T16:17:05.996Z,29.17
2022-08-03T16:19:33.879Z,29.06
2022-08-03T16:22:03.618Z,28.95
2022-08-03T16:24:31.981Z,28.86
2022-08-03T16:27:00.497Z,28.78
2022-08-03T16:29:29.679Z,28.70
2022-08-03T16:31:57.617Z,28.62
2022-08-03T16:34:26.285Z,28.53
2022-08-03T16:36:56.586Z,28.43
2022-08-03T16:39:24.698Z,28.34
2022-08-03T16:41:53.835Z,28.28
2022-08-03T16:44:30.840Z,28.21
2022-08-03T16:46:59.380Z,28.14
2022-08-03T16:49:53.713Z,28.08
2022-08-03T16:52:16.468Z,27.99
2022-08-03T16:54:53.224Z,27.91
2022-08-03T16:57:56.660Z,27.84
2022-08-03T17:00:33.792Z,27.76
2022-08-03T17:03:04.808Z,27.69
2022-08-03T17:05:49.624Z,27.62
2022-08-03T17:08:27.192Z,27.56
2022-08-03T17:10:55.933Z,27.51
2022-08-03T17:13:27.828Z,27.46
2022-08-03T17:16:09.631Z,27.40
2022-08-03T17:18:39.228Z,27.33
2022-08-03T17:21:13.877Z,27.27
2022-08-03T17:24:00.841Z,27.21
2022-08-03T17:26:34.611Z,27.13
2022-08-03T17:29:11.267Z,27.06
2022-08-03T17:31:48.907Z,26.98
2022-08-03T17:34:18.906Z,26.92
2022-08-03T17:37:04.747Z,26.84
2022-08-03T17:42:32.132Z,26.69
2022-08-03T17:45:03.822Z,26.60
2022-08-03T17:47:42.033Z,26.55
2022-08-03T17:50:23.929Z,26.47
2022-08-03T17:53:07.277Z,26.40
2022-08-03T17:55:57.534Z,26.31
2022-08-03T17:58:53.743Z,26.25
2022-08-03T18:01:59.634Z,26.16
2022-08-03T18:04:33.952Z,26.05
2022-08-03T18:07:11.600Z,25.96
2022-08-03T18:10:04.047Z,25.87
2022-08-03T18:12:51.698Z,25.77
2022-08-03T18:15:34.864Z,25.68
2022-08-03T18:18:10.460Z,25.58
2022-08-03T18:20:41.929Z,25.49
2022-08-03T18:23:24.772Z,25.43
2022-08-03T18:26:01.699Z,25.35
2022-08-03T18:28:29.814Z,25.29
2022-08-03T18:30:58.115Z,25.22
2022-08-03T18:34:19.922Z,25.13
2022-08-03T18:36:29.664Z,25.03
2022-08-03T18:39:00.068Z,24.95
2022-08-03T18:41:32.067Z,24.88
2022-08-03T18:44:08.185Z,24.81
2022-08-03T18:46:46.434Z,24.75
2022-08-03T18:49:25.386Z,24.70
2022-08-03T18:52:05.177Z,24.63
2022-08-03T18:55:02.572Z,24.57
2022-08-03T18:58:03.579Z,24.49
2022-08-03T19:00:54.408Z,24.39
2022-08-03T19:03:23.619Z,24.30
2022-08-03T19:06:13.407Z,24.22
2022-08-03T19:08:48.270Z,24.12
2022-08-03T19:11:28.744Z,24.03
2022-08-03T19:14:20.780Z,23.94
2022-08-03T19:17:00.120Z,23.86
2022-08-03T19:19:43.526Z,23.79
2022-08-03T19:22:19.690Z,23.71
2022-08-03T19:24:49.309Z,23.62
2022-08-03T19:27:17.711Z,23.54
2022-08-03T19:29:57.914Z,23.45
2022-08-03T19:32:29.851Z,23.37
2022-08-03T19:34:59.667Z,23.30
2022-08-03T19:37:38.172Z,23.23
2022-08-03T19:40:10.866Z,23.16
2022-08-03T19:42:44.745Z,23.07
2022-08-03T19:45:17.662Z,23.00
2022-08-03T19:47:47.550Z,22.92
2022-08-03T19:50:19.256Z,22.87
2022-08-03T19:52:49.793Z,22.83
2022-08-03T19:55:18.332Z,22.78
2022-08-03T19:57:49.404Z,22.72
2022-08-03T20:00:26.481Z,22.66
2022-08-03T20:02:55.600Z,22.62
2022-08-03T20:05:23.955Z,22.58
2022-08-03T20:07:55.153Z,22.52
2022-08-03T20:10:24.337Z,22.47
2022-08-03T20:12:52.403Z,22.43
2022-08-03T20:15:30.835Z,22.39
2022-08-03T20:18:00.350Z,22.34
2022-08-03T20:20:30.294Z,22.31
2022-08-03T20:22:59.221Z,22.27
2022-08-03T20:25:38.137Z,22.25
2022-08-03T20:28:13.502Z,22.21
2022-08-03T20:30:44.053Z,22.19
2022-08-03T20:33:12.584Z,22.17
2022-08-03T20:35:49.033Z,22.14
2022-08-03T20:38:19.125Z,22.12
2022-08-03T20:40:47.723Z,22.08
2022-08-03T20:43:16.399Z,22.06
2022-08-03T20:45:59.651Z,22.04
2022-08-03T20:48:34.947Z,22.02
2022-08-03T20:51:19.738Z,22.01
2022-08-03T20:53:57.271Z,22.00
2022-08-03T20:56:35.149Z,22.00
2022-08-03T20:59:05.167Z,21.98
2022-08-03T21:01:35.973Z,21.98
2022-08-03T21:04:09.260Z,21.95
2022-08-03T21:07:01.918Z,21.92
2022-08-03T21:09:41.599Z,21.88
2022-08-03T21:13:13.253Z,21.83
2022-08-03T21:15:04.574Z,21.77
2022-08-03T21:17:41.867Z,21.72
2022-08-03T21:20:11.863Z,21.64
2022-08-03T21:22:42.929Z,21.58
2022-08-03T21:25:14.264Z,21.52
2022-08-03T21:27:42.281Z,21.46
2022-08-03T21:30:11.435Z,21.42
2022-08-03T21:32:42.054Z,21.38
2022-08-03T21:35:10.745Z,21.34
2022-08-03T21:37:40.084Z,21.28
2022-08-03T21:40:09.385Z,21.25
2022-08-03T21:42:37.719Z,21.22
2022-08-03T21:45:07.440Z,21.15
2022-08-03T21:47:39.412Z,21.10
2022-08-03T21:50:09.928Z,21.06
2022-08-03T21:52:42.348Z,21.01
2022-08-03T21:55:20.872Z,20.98
2022-08-03T21:57:51.591Z,20.94
2022-08-03T22:00:22.065Z,20.90
2022-08-03T22:02:55.746Z,20.87
2022-08-03T22:05:29.142Z,20.83
2022-08-03T22:08:13.428Z,20.77
2022-08-03T22:10:43.619Z,20.72
2022-08-03T22:13:17.595Z,20.67
2022-08-03T22:15:47.821Z,20.62
2022-08-03T22:18:16.200Z,20.59
2022-08-03T22:20:49.499Z,20.55
2022-08-03T22:23:21.355Z,20.52
2022-08-03T22:25:52.012Z,20.50
2022-08-03T22:28:22.272Z,20.47
2022-08-03T22:30:51.846Z,20.45
2022-08-03T22:33:19.791Z,20.42
2022-08-03T22:35:49.629Z,20.40
2022-08-03T22:38:18.871Z,20.37
2022-08-03T22:40:48.361Z,20.36
2022-08-03T22:43:16.605Z,20.33
2022-08-03T22:46:10.513Z,20.30
2022-08-03T22:48:34.847Z,20.27
2022-08-03T22:51:03.464Z,20.23
2022-08-03T22:53:31.336Z,20.20
2022-08-03T22:55:59.180Z,20.15
2022-08-03T22:58:27.038Z,20.11
2022-08-03T23:00:56.364Z,20.06
2022-08-03T23:03:25.469Z,20.01
2022-08-03T23:06:14.536Z,19.96
2022-08-03T23:08:44.344Z,19.92
2022-08-03T23:11:13.375Z,19.87
2022-08-03T23:13:41.459Z,19.81
2022-08-03T23:16:09.822Z,19.74
2022-08-03T23:18:39.834Z,19.68
2022-08-03T23:21:11.136Z,19.62
2022-08-03T23:23:44.173Z,19.58
2022-08-03T23:26:13.459Z,19.55
2022-08-03T23:28:45.292Z,19.52
2022-08-03T23:31:14.355Z,19.48
2022-08-03T23:33:44.659Z,19.43
2022-08-03T23:36:31.023Z,19.40
2022-08-03T23:39:02.461Z,19.36
2022-08-03T23:41:33.466Z,19.32
2022-08-03T23:44:03.740Z,19.28
2022-08-03T23:46:32.837Z,19.23
2022-08-03T23:49:00.715Z,19.17
2022-08-03T23:51:31.431Z,19.11
2022-08-03T23:54:18.181Z,19.06
2022-08-03T23:56:53.115Z,18.99
2022-08-03T23:59:39.547Z,18.92
